AFR85C EDDF-LFPG
Flight info
| Callsign | AFR85C |
|---|---|
| Flight time | 0h 52m |
| Altitude | 24000 |
| Route | SOBRA2L SOBRA Y180 DIK UN857 TOLVU/N0414F230 DCT RAPOR DCT VEDUS |
| Aircraft | A359/H-SDE2E3GHIJ3J4J5LM1ORWXY/LB1D1 |
Departure
| Time | 2026-05-08 21:31 |
|---|---|
| Airport | Frankfurt Main Airport (EDDF) |
Arrival
| Time | 2026-05-08 22:24 |
|---|---|
| Airport | Charles de Gaulle International Airport (LFPG) |
| Time | Latitude | Longitude | Altitude | Speed | Heading |
|---|---|---|---|---|---|
| 2026-05-08 20:49 | 50.04646 | 8.57262 | 369 ft | 0 kts | 298° |
| 2026-05-08 21:20 | 50.04640 | 8.57280 | 365 ft | 3 kts | 300° |
| 2026-05-08 21:20 | 50.04631 | 8.57304 | 369 ft | 3 kts | 298° |
| 2026-05-08 21:21 | 50.04622 | 8.57329 | 364 ft | 3 kts | 298° |
| 2026-05-08 21:21 | 50.04614 | 8.57353 | 368 ft | 2 kts | 298° |
| 2026-05-08 21:21 | 50.04605 | 8.57377 | 365 ft | 3 kts | 284° |
| 2026-05-08 21:21 | 50.04603 | 8.57395 | 364 ft | 0 kts | 258° |
| 2026-05-08 21:23 | 50.04572 | 8.57316 | 371 ft | 14 kts | 242° |
| 2026-05-08 21:23 | 50.04534 | 8.57172 | 369 ft | 16 kts | 249° |
| 2026-05-08 21:24 | 50.04494 | 8.57003 | 365 ft | 18 kts | 250° |
| 2026-05-08 21:24 | 50.04451 | 8.56817 | 371 ft | 19 kts | 250° |
| 2026-05-08 21:24 | 50.04399 | 8.56605 | 368 ft | 23 kts | 249° |
| 2026-05-08 21:24 | 50.04341 | 8.56362 | 366 ft | 19 kts | 249° |
| 2026-05-08 21:25 | 50.04291 | 8.56154 | 365 ft | 22 kts | 250° |
| 2026-05-08 21:25 | 50.04234 | 8.55917 | 368 ft | 25 kts | 249° |
| 2026-05-08 21:25 | 50.04171 | 8.55652 | 363 ft | 27 kts | 250° |
| 2026-05-08 21:25 | 50.04110 | 8.55398 | 364 ft | 21 kts | 250° |
| 2026-05-08 21:26 | 50.04058 | 8.55182 | 366 ft | 22 kts | 250° |
| 2026-05-08 21:26 | 50.04001 | 8.54942 | 365 ft | 25 kts | 250° |
| 2026-05-08 21:26 | 50.03937 | 8.54671 | 363 ft | 29 kts | 250° |
| 2026-05-08 21:26 | 50.03870 | 8.54408 | 360 ft | 18 kts | 242° |
| 2026-05-08 21:27 | 50.03803 | 8.54223 | 361 ft | 21 kts | 245° |
| 2026-05-08 21:27 | 50.03750 | 8.54008 | 359 ft | 22 kts | 251° |
| 2026-05-08 21:27 | 50.03694 | 8.53770 | 355 ft | 25 kts | 248° |
| 2026-05-08 21:27 | 50.03644 | 8.53570 | 356 ft | 21 kts | 249° |
| 2026-05-08 21:28 | 50.03588 | 8.53345 | 352 ft | 24 kts | 249° |
| 2026-05-08 21:28 | 50.03527 | 8.53091 | 352 ft | 26 kts | 250° |
| 2026-05-08 21:28 | 50.03457 | 8.52817 | 351 ft | 28 kts | 248° |
| 2026-05-08 21:28 | 50.03431 | 8.52714 | 350 ft | 0 kts | 249° |
| 2026-05-08 21:29 | 50.03429 | 8.52706 | 353 ft | 6 kts | 249° |
| 2026-05-08 21:29 | 50.03389 | 8.52614 | 347 ft | 11 kts | 210° |
| 2026-05-08 21:29 | 50.03323 | 8.52595 | 349 ft | 0 kts | 181° |
| 2026-05-08 21:30 | 50.03152 | 8.52596 | 347 ft | 64 kts | 179° |
| 2026-05-08 21:30 | 50.02745 | 8.52596 | 345 ft | 112 kts | 179° |
| 2026-05-08 21:31 | 50.01751 | 8.52603 | 359 ft | 172 kts | 183° |
| 2026-05-08 21:31 | 50.00483 | 8.52597 | 828 ft | 191 kts | 179° |
| 2026-05-08 21:31 | 49.99086 | 8.52610 | 1528 ft | 207 kts | 176° |
| 2026-05-08 21:31 | 49.97619 | 8.52655 | 2350 ft | 214 kts | 175° |
| 2026-05-08 21:32 | 49.96098 | 8.52742 | 3136 ft | 223 kts | 175° |
| 2026-05-08 21:32 | 49.94549 | 8.52874 | 3770 ft | 227 kts | 175° |
| 2026-05-08 21:32 | 49.92935 | 8.53040 | 4527 ft | 232 kts | 175° |
| 2026-05-08 21:32 | 49.91317 | 8.53187 | 5411 ft | 234 kts | 177° |
| 2026-05-08 21:33 | 49.89681 | 8.53318 | 6299 ft | 237 kts | 178° |
| 2026-05-08 21:33 | 49.88017 | 8.53278 | 6954 ft | 251 kts | 189° |
| 2026-05-08 21:33 | 49.86343 | 8.52315 | 7549 ft | 264 kts | 216° |
| 2026-05-08 21:33 | 49.85190 | 8.50116 | 8411 ft | 268 kts | 248° |
| 2026-05-08 21:34 | 49.84837 | 8.47268 | 9387 ft | 272 kts | 265° |
| 2026-05-08 21:34 | 49.84507 | 8.44350 | 10301 ft | 277 kts | 256° |
| 2026-05-08 21:34 | 49.84087 | 8.41334 | 10830 ft | 298 kts | 262° |
| 2026-05-08 21:34 | 49.83980 | 8.38004 | 11250 ft | 321 kts | 269° |
| 2026-05-08 21:35 | 49.84040 | 8.34515 | 11847 ft | 334 kts | 272° |
| 2026-05-08 21:35 | 49.84200 | 8.30891 | 12702 ft | 341 kts | 274° |
| 2026-05-08 21:35 | 49.84403 | 8.27194 | 13553 ft | 347 kts | 274° |
| 2026-05-08 21:35 | 49.84617 | 8.23440 | 14361 ft | 352 kts | 274° |
| 2026-05-08 21:36 | 49.84825 | 8.19637 | 15160 ft | 356 kts | 274° |
| 2026-05-08 21:36 | 49.85023 | 8.15797 | 15960 ft | 360 kts | 273° |
| 2026-05-08 21:36 | 49.85213 | 8.11904 | 16729 ft | 364 kts | 273° |
| 2026-05-08 21:36 | 49.85396 | 8.07973 | 17539 ft | 368 kts | 273° |
| 2026-05-08 21:37 | 49.85576 | 8.03997 | 18390 ft | 372 kts | 273° |
| 2026-05-08 21:37 | 49.85756 | 7.99981 | 19131 ft | 376 kts | 273° |
| 2026-05-08 21:37 | 49.85936 | 7.95922 | 19876 ft | 380 kts | 273° |
| 2026-05-08 21:37 | 49.86117 | 7.91816 | 20607 ft | 384 kts | 273° |
| 2026-05-08 21:38 | 49.86299 | 7.87663 | 21335 ft | 388 kts | 273° |
| 2026-05-08 21:38 | 49.86482 | 7.83463 | 22064 ft | 392 kts | 273° |
| 2026-05-08 21:38 | 49.86665 | 7.79232 | 22795 ft | 396 kts | 273° |
| 2026-05-08 21:38 | 49.86851 | 7.74948 | 23507 ft | 400 kts | 273° |
| 2026-05-08 21:39 | 49.87248 | 7.70663 | 23958 ft | 403 kts | 280° |
| 2026-05-08 21:39 | 49.87808 | 7.66407 | 24104 ft | 399 kts | 282° |
| 2026-05-08 21:39 | 49.88412 | 7.62308 | 24120 ft | 392 kts | 283° |
| 2026-05-08 21:39 | 49.89050 | 7.58209 | 24119 ft | 390 kts | 283° |
| 2026-05-08 21:40 | 49.89696 | 7.54127 | 24123 ft | 390 kts | 283° |
| 2026-05-08 21:40 | 49.90340 | 7.50046 | 24122 ft | 389 kts | 283° |
| 2026-05-08 21:40 | 49.90978 | 7.45960 | 24124 ft | 389 kts | 283° |
| 2026-05-08 21:41 | 49.92238 | 7.37778 | 24131 ft | 389 kts | 283° |
| 2026-05-08 21:41 | 49.92862 | 7.33679 | 24130 ft | 389 kts | 283° |
| 2026-05-08 21:41 | 49.93481 | 7.29592 | 24129 ft | 389 kts | 283° |
| 2026-05-08 21:41 | 49.94099 | 7.25497 | 24129 ft | 390 kts | 283° |
| 2026-05-08 21:42 | 49.94716 | 7.21404 | 24129 ft | 389 kts | 283° |
| 2026-05-08 21:42 | 49.95331 | 7.17309 | 24130 ft | 390 kts | 283° |
| 2026-05-08 21:42 | 49.95946 | 7.13212 | 24131 ft | 390 kts | 283° |
| 2026-05-08 21:42 | 49.96561 | 7.09108 | 24128 ft | 389 kts | 283° |
| 2026-05-08 21:43 | 49.97172 | 7.05013 | 24128 ft | 389 kts | 283° |
| 2026-05-08 21:43 | 49.97782 | 7.00919 | 24126 ft | 389 kts | 283° |
| 2026-05-08 21:43 | 49.98391 | 6.96819 | 24112 ft | 389 kts | 283° |
| 2026-05-08 21:43 | 49.98960 | 6.92763 | 24106 ft | 390 kts | 279° |
| 2026-05-08 21:44 | 49.99169 | 6.89237 | 24113 ft | 390 kts | 271° |
| 2026-05-08 21:44 | 49.99066 | 6.85027 | 24107 ft | 390 kts | 263° |
| 2026-05-08 21:44 | 49.98518 | 6.80903 | 24111 ft | 391 kts | 255° |
| 2026-05-08 21:44 | 49.97710 | 6.76867 | 24110 ft | 392 kts | 251° |
| 2026-05-08 21:45 | 49.96767 | 6.72890 | 24109 ft | 393 kts | 249° |
| 2026-05-08 21:45 | 49.95751 | 6.68948 | 24109 ft | 393 kts | 248° |
| 2026-05-08 21:45 | 49.94709 | 6.65030 | 24110 ft | 393 kts | 248° |
| 2026-05-08 21:45 | 49.93662 | 6.61108 | 24109 ft | 393 kts | 248° |
| 2026-05-08 21:46 | 49.92619 | 6.57174 | 24109 ft | 393 kts | 248° |
| 2026-05-08 21:46 | 49.91587 | 6.53249 | 24102 ft | 393 kts | 248° |
| 2026-05-08 21:46 | 49.90574 | 6.49370 | 24103 ft | 393 kts | 249° |
| 2026-05-08 21:46 | 49.89550 | 6.45434 | 24102 ft | 393 kts | 249° |
| 2026-05-08 21:47 | 49.88528 | 6.41501 | 24102 ft | 393 kts | 249° |
| 2026-05-08 21:47 | 49.87508 | 6.37580 | 24100 ft | 393 kts | 249° |
| 2026-05-08 21:47 | 49.86484 | 6.33654 | 24108 ft | 393 kts | 249° |
| 2026-05-08 21:47 | 49.85452 | 6.29703 | 24108 ft | 395 kts | 249° |
| 2026-05-08 21:48 | 49.84419 | 6.25755 | 24108 ft | 396 kts | 249° |
| 2026-05-08 21:48 | 49.83382 | 6.21804 | 24107 ft | 396 kts | 249° |
| 2026-05-08 21:48 | 49.82345 | 6.17855 | 24107 ft | 396 kts | 249° |
| 2026-05-08 21:48 | 49.81320 | 6.13959 | 24106 ft | 396 kts | 249° |
| 2026-05-08 21:49 | 49.80279 | 6.10013 | 24106 ft | 395 kts | 249° |
| 2026-05-08 21:49 | 49.79242 | 6.06083 | 24106 ft | 395 kts | 249° |
| 2026-05-08 21:49 | 49.78201 | 6.02150 | 24106 ft | 394 kts | 249° |
| 2026-05-08 21:49 | 49.77159 | 5.98219 | 24107 ft | 394 kts | 249° |
| 2026-05-08 21:50 | 49.76118 | 5.94296 | 24107 ft | 394 kts | 249° |
| 2026-05-08 21:50 | 49.75074 | 5.90369 | 24108 ft | 394 kts | 249° |
| 2026-05-08 21:50 | 49.74030 | 5.86452 | 24104 ft | 395 kts | 249° |
| 2026-05-08 21:50 | 49.73029 | 5.82497 | 24105 ft | 396 kts | 251° |
| 2026-05-08 21:51 | 49.72095 | 5.78491 | 24107 ft | 396 kts | 252° |
| 2026-05-08 21:51 | 49.71188 | 5.74465 | 24107 ft | 397 kts | 252° |
| 2026-05-08 21:51 | 49.70283 | 5.70428 | 24107 ft | 397 kts | 252° |
| 2026-05-08 21:51 | 49.69370 | 5.66393 | 24107 ft | 397 kts | 252° |
| 2026-05-08 21:52 | 49.68446 | 5.62365 | 24108 ft | 397 kts | 252° |
| 2026-05-08 21:52 | 49.67528 | 5.58402 | 24108 ft | 397 kts | 252° |
| 2026-05-08 21:52 | 49.66579 | 5.54342 | 24108 ft | 397 kts | 251° |
| 2026-05-08 21:52 | 49.65647 | 5.50370 | 24105 ft | 397 kts | 251° |
| 2026-05-08 21:53 | 49.64704 | 5.46368 | 24105 ft | 397 kts | 251° |
| 2026-05-08 21:53 | 49.63759 | 5.42364 | 24105 ft | 397 kts | 251° |
| 2026-05-08 21:53 | 49.62814 | 5.38364 | 24098 ft | 397 kts | 252° |
| 2026-05-08 21:53 | 49.61869 | 5.34323 | 24104 ft | 398 kts | 253° |
| 2026-05-08 21:54 | 49.60993 | 5.30328 | 24102 ft | 398 kts | 254° |
| 2026-05-08 21:54 | 49.60137 | 5.26266 | 24103 ft | 398 kts | 254° |
| 2026-05-08 21:54 | 49.59450 | 5.22141 | 24103 ft | 396 kts | 263° |
| 2026-05-08 21:54 | 49.59240 | 5.17925 | 24098 ft | 393 kts | 271° |
| 2026-05-08 21:55 | 49.59232 | 5.13704 | 24100 ft | 393 kts | 272° |
| 2026-05-08 21:55 | 49.59258 | 5.09490 | 24103 ft | 393 kts | 273° |
| 2026-05-08 21:55 | 49.59289 | 5.05274 | 24101 ft | 393 kts | 273° |
| 2026-05-08 21:56 | 49.59352 | 4.96837 | 24098 ft | 393 kts | 273° |
| 2026-05-08 21:56 | 49.59380 | 4.92625 | 24101 ft | 393 kts | 273° |
| 2026-05-08 21:56 | 49.59409 | 4.88403 | 24099 ft | 394 kts | 273° |
| 2026-05-08 21:56 | 49.59437 | 4.84219 | 24092 ft | 394 kts | 273° |
| 2026-05-08 21:57 | 49.59464 | 4.79995 | 24103 ft | 394 kts | 273° |
| 2026-05-08 21:57 | 49.59492 | 4.75774 | 24097 ft | 394 kts | 273° |
| 2026-05-08 21:57 | 49.59516 | 4.71544 | 24101 ft | 394 kts | 273° |
| 2026-05-08 21:57 | 49.59536 | 4.67322 | 24088 ft | 394 kts | 273° |
| 2026-05-08 21:58 | 49.59554 | 4.63098 | 24095 ft | 394 kts | 273° |
| 2026-05-08 21:58 | 49.59571 | 4.58907 | 23727 ft | 390 kts | 273° |
| 2026-05-08 21:58 | 49.59589 | 4.54684 | 22711 ft | 398 kts | 272° |
| 2026-05-08 21:58 | 49.59606 | 4.50368 | 21717 ft | 406 kts | 272° |
| 2026-05-08 21:59 | 49.59620 | 4.46010 | 20991 ft | 407 kts | 271° |
| 2026-05-08 21:59 | 49.59632 | 4.41664 | 20371 ft | 404 kts | 271° |
| 2026-05-08 21:59 | 49.59642 | 4.37347 | 19782 ft | 401 kts | 271° |
| 2026-05-08 21:59 | 49.59651 | 4.33066 | 19215 ft | 398 kts | 270° |
| 2026-05-08 22:00 | 49.59659 | 4.28812 | 18654 ft | 395 kts | 270° |
| 2026-05-08 22:00 | 49.59665 | 4.24587 | 18141 ft | 390 kts | 269° |
| 2026-05-08 22:00 | 49.59668 | 4.20523 | 17869 ft | 378 kts | 269° |
| 2026-05-08 22:00 | 49.59670 | 4.16540 | 17612 ft | 366 kts | 269° |
| 2026-05-08 22:01 | 49.59671 | 4.12654 | 17236 ft | 359 kts | 269° |
| 2026-05-08 22:01 | 49.59589 | 4.08837 | 17085 ft | 356 kts | 263° |
| 2026-05-08 22:01 | 49.58923 | 4.05180 | 17097 ft | 355 kts | 244° |
| 2026-05-08 22:01 | 49.57693 | 4.01888 | 17084 ft | 354 kts | 237° |
| 2026-05-08 22:02 | 49.56348 | 3.98712 | 17084 ft | 354 kts | 236° |
| 2026-05-08 22:02 | 49.54991 | 3.95536 | 17086 ft | 355 kts | 236° |
| 2026-05-08 22:02 | 49.53635 | 3.92348 | 17101 ft | 354 kts | 236° |
| 2026-05-08 22:02 | 49.52284 | 3.89164 | 17083 ft | 354 kts | 236° |
| 2026-05-08 22:03 | 49.50964 | 3.86047 | 16725 ft | 349 kts | 236° |
| 2026-05-08 22:03 | 49.49633 | 3.82907 | 16151 ft | 348 kts | 237° |
| 2026-05-08 22:03 | 49.48315 | 3.79784 | 15638 ft | 346 kts | 237° |
| 2026-05-08 22:03 | 49.47271 | 3.76485 | 15149 ft | 343 kts | 251° |
| 2026-05-08 22:04 | 49.46618 | 3.72973 | 14678 ft | 340 kts | 255° |
| 2026-05-08 22:04 | 49.46035 | 3.69469 | 14230 ft | 336 kts | 255° |
| 2026-05-08 22:04 | 49.45314 | 3.66082 | 13758 ft | 332 kts | 250° |
| 2026-05-08 22:04 | 49.44535 | 3.62758 | 13268 ft | 329 kts | 250° |
| 2026-05-08 22:05 | 49.43747 | 3.59468 | 13096 ft | 328 kts | 249° |
| 2026-05-08 22:05 | 49.42959 | 3.56216 | 13091 ft | 329 kts | 249° |
| 2026-05-08 22:05 | 49.42155 | 3.52926 | 13088 ft | 329 kts | 249° |
| 2026-05-08 22:05 | 49.41337 | 3.49595 | 13088 ft | 329 kts | 249° |
| 2026-05-08 22:06 | 49.40527 | 3.46309 | 13090 ft | 329 kts | 249° |
| 2026-05-08 22:06 | 49.39727 | 3.43068 | 13087 ft | 329 kts | 249° |
| 2026-05-08 22:06 | 49.38913 | 3.39779 | 13088 ft | 329 kts | 249° |
| 2026-05-08 22:06 | 49.38098 | 3.36495 | 13085 ft | 329 kts | 249° |
| 2026-05-08 22:07 | 49.37282 | 3.33208 | 13087 ft | 329 kts | 249° |
| 2026-05-08 22:07 | 49.36466 | 3.29925 | 13086 ft | 329 kts | 249° |
| 2026-05-08 22:07 | 49.35649 | 3.26645 | 13086 ft | 329 kts | 249° |
| 2026-05-08 22:07 | 49.34831 | 3.23368 | 13086 ft | 329 kts | 249° |
| 2026-05-08 22:08 | 49.34013 | 3.20093 | 13082 ft | 329 kts | 249° |
| 2026-05-08 22:08 | 49.33192 | 3.16814 | 13082 ft | 329 kts | 249° |
| 2026-05-08 22:08 | 49.32371 | 3.13537 | 13083 ft | 329 kts | 249° |
| 2026-05-08 22:08 | 49.31551 | 3.10267 | 12908 ft | 329 kts | 249° |
| 2026-05-08 22:09 | 49.30727 | 3.06992 | 12356 ft | 328 kts | 249° |
| 2026-05-08 22:09 | 49.29911 | 3.03749 | 11839 ft | 325 kts | 249° |
| 2026-05-08 22:09 | 49.29109 | 3.00569 | 11369 ft | 322 kts | 249° |
| 2026-05-08 22:09 | 49.28306 | 2.97390 | 11109 ft | 319 kts | 249° |
| 2026-05-08 22:10 | 49.27503 | 2.94210 | 11072 ft | 320 kts | 249° |
| 2026-05-08 22:10 | 49.26709 | 2.91072 | 11080 ft | 320 kts | 249° |
| 2026-05-08 22:10 | 49.25905 | 2.87900 | 11080 ft | 318 kts | 248° |
| 2026-05-08 22:10 | 49.25108 | 2.84759 | 11080 ft | 317 kts | 248° |
| 2026-05-08 22:11 | 49.24307 | 2.81609 | 11080 ft | 316 kts | 248° |
| 2026-05-08 22:11 | 49.23509 | 2.78472 | 11081 ft | 317 kts | 248° |
| 2026-05-08 22:11 | 49.22707 | 2.75326 | 11078 ft | 317 kts | 248° |
| 2026-05-08 22:11 | 49.21906 | 2.72187 | 11077 ft | 317 kts | 248° |
| 2026-05-08 22:12 | 49.21104 | 2.69050 | 11077 ft | 317 kts | 248° |
| 2026-05-08 22:12 | 49.20301 | 2.65912 | 11076 ft | 317 kts | 248° |
| 2026-05-08 22:12 | 49.19505 | 2.62810 | 11079 ft | 318 kts | 248° |
| 2026-05-08 22:12 | 49.18698 | 2.59658 | 10981 ft | 308 kts | 249° |
| 2026-05-08 22:13 | 49.18144 | 2.56620 | 10736 ft | 293 kts | 262° |
| 2026-05-08 22:13 | 49.17986 | 2.53580 | 10191 ft | 283 kts | 267° |
| 2026-05-08 22:13 | 49.17928 | 2.50571 | 9634 ft | 284 kts | 268° |
| 2026-05-08 22:13 | 49.17850 | 2.47537 | 9205 ft | 280 kts | 264° |
| 2026-05-08 22:14 | 49.17326 | 2.44733 | 8779 ft | 278 kts | 245° |
| 2026-05-08 22:14 | 49.16473 | 2.42092 | 8360 ft | 276 kts | 242° |
| 2026-05-08 22:14 | 49.15583 | 2.39509 | 7932 ft | 274 kts | 242° |
| 2026-05-08 22:14 | 49.14693 | 2.36937 | 7513 ft | 273 kts | 242° |
| 2026-05-08 22:15 | 49.13814 | 2.34382 | 7112 ft | 271 kts | 242° |
| 2026-05-08 22:15 | 49.12939 | 2.31833 | 6658 ft | 271 kts | 242° |
| 2026-05-08 22:15 | 49.12065 | 2.29280 | 6215 ft | 271 kts | 242° |
| 2026-05-08 22:15 | 49.11196 | 2.26745 | 5924 ft | 265 kts | 242° |
| 2026-05-08 22:16 | 49.10508 | 2.24710 | 5711 ft | 251 kts | 242° |
| 2026-05-08 22:16 | 49.09732 | 2.22402 | 5351 ft | 239 kts | 242° |
| 2026-05-08 22:16 | 49.08899 | 2.20259 | 4884 ft | 232 kts | 226° |
| 2026-05-08 22:16 | 49.07577 | 2.18988 | 4518 ft | 224 kts | 193° |
| 2026-05-08 22:17 | 49.06565 | 2.18864 | 4345 ft | 219 kts | 171° |
| 2026-05-08 22:17 | 49.05160 | 2.19628 | 4074 ft | 213 kts | 151° |
| 2026-05-08 22:17 | 49.03278 | 2.20249 | 3757 ft | 210 kts | 182° |
| 2026-05-08 22:17 | 49.01860 | 2.19810 | 3487 ft | 207 kts | 193° |
| 2026-05-08 22:18 | 49.00898 | 2.19632 | 3207 ft | 206 kts | 173° |
| 2026-05-08 22:18 | 48.99604 | 2.20414 | 3015 ft | 200 kts | 140° |
| 2026-05-08 22:18 | 48.98608 | 2.21813 | 2986 ft | 193 kts | 133° |
| 2026-05-08 22:18 | 48.97697 | 2.23277 | 2982 ft | 192 kts | 131° |
| 2026-05-08 22:19 | 48.97085 | 2.25051 | 3004 ft | 192 kts | 99° |
| 2026-05-08 22:19 | 48.97099 | 2.27062 | 2990 ft | 190 kts | 84° |
| 2026-05-08 22:19 | 48.97279 | 2.29055 | 2987 ft | 190 kts | 82° |
| 2026-05-08 22:19 | 48.97481 | 2.31050 | 3005 ft | 195 kts | 82° |
| 2026-05-08 22:20 | 48.97685 | 2.33058 | 2977 ft | 184 kts | 82° |
| 2026-05-08 22:20 | 48.97987 | 2.34907 | 2987 ft | 180 kts | 72° |
| 2026-05-08 22:20 | 48.98192 | 2.36779 | 2933 ft | 178 kts | 87° |
| 2026-05-08 22:20 | 48.98283 | 2.38651 | 2706 ft | 177 kts | 84° |
| 2026-05-08 22:21 | 48.98412 | 2.40483 | 2456 ft | 176 kts | 84° |
| 2026-05-08 22:21 | 48.98525 | 2.42311 | 2225 ft | 170 kts | 85° |
| 2026-05-08 22:21 | 48.98615 | 2.44033 | 1988 ft | 156 kts | 85° |
| 2026-05-08 22:21 | 48.98701 | 2.45614 | 1790 ft | 145 kts | 85° |
| 2026-05-08 22:22 | 48.98781 | 2.47114 | 1609 ft | 141 kts | 85° |
| 2026-05-08 22:22 | 48.98860 | 2.48597 | 1399 ft | 140 kts | 85° |
| 2026-05-08 22:22 | 48.98956 | 2.50069 | 1197 ft | 140 kts | 85° |
| 2026-05-08 22:22 | 48.99022 | 2.51572 | 1010 ft | 146 kts | 84° |
| 2026-05-08 22:23 | 48.99124 | 2.53107 | 795 ft | 147 kts | 82° |
| 2026-05-08 22:23 | 48.99188 | 2.54629 | 621 ft | 140 kts | 86° |
| 2026-05-08 22:23 | 48.99268 | 2.56130 | 472 ft | 145 kts | 84° |
| 2026-05-08 22:23 | 48.99357 | 2.57653 | 364 ft | 141 kts | 85° |
| 2026-05-08 22:24 | 48.99412 | 2.58888 | 364 ft | 79 kts | 85° |
| 2026-05-08 22:24 | 48.99441 | 2.59366 | 364 ft | 34 kts | 84° |
| 2026-05-08 22:24 | 48.99470 | 2.59749 | 365 ft | 31 kts | 77° |
| 2026-05-08 22:24 | 48.99593 | 2.59976 | 366 ft | 17 kts | 7° |
| 2026-05-08 22:25 | 48.99695 | 2.59975 | 364 ft | 15 kts | 354° |
| 2026-05-08 22:25 | 48.99827 | 2.59958 | 366 ft | 21 kts | 0° |
| 2026-05-08 22:25 | 48.99905 | 2.60017 | 369 ft | 11 kts | 43° |
| 2026-05-08 22:25 | 48.99955 | 2.60066 | 366 ft | 0 kts | 13° |
| 2026-05-08 22:27 | 48.99957 | 2.60066 | 366 ft | 2 kts | 12° |
| 2026-05-08 22:27 | 48.99990 | 2.60053 | 367 ft | 8 kts | 333° |
| 2026-05-08 22:27 | 49.00056 | 2.60002 | 365 ft | 12 kts | 343° |
| 2026-05-08 22:28 | 49.00142 | 2.59985 | 364 ft | 13 kts | 346° |
| 2026-05-08 22:28 | 48.99363 | 2.57755 | 360 ft | 0 kts | 88° |
| 2026-05-08 22:28 | 48.99363 | 2.57759 | 359 ft | 0 kts | 88° |